sensor_id;sensor_type;location;lat;lon;timestamp;temperature;humidity
21672;DHT22;10997;52.242;8.168;2023-03-01T00:10:46;-2.90;99.90
21672;DHT22;10997;52.242;8.168;2023-03-01T00:15:46;-3.00;99.90
21672;DHT22;10997;52.242;8.168;2023-03-01T00:20:51;-3.00;99.90
21672;DHT22;10997;52.242;8.168;2023-03-01T00:25:52;-3.10;99.90
21672;DHT22;10997;52.242;8.168;2023-03-01T00:30:53;-3.10;99.90
21672;DHT22;10997;52.242;8.168;2023-03-01T00:35:54;-3.20;99.90
21672;DHT22;10997;52.242;8.168;2023-03-01T00:40:54;-3.20;99.90
21672;DHT22;10997;52.242;8.168;2023-03-01T00:45:55;-3.30;99.90
21672;DHT22;10997;52.242;8.168;2023-03-01T00:50:55;-3.30;99.90
21672;DHT22;10997;52.242;8.168;2023-03-01T00:55:57;-3.40;99.90
21672;DHT22;10997;52.242;8.168;2023-03-01T01:00:58;-3.40;99.90
21672;DHT22;10997;52.242;8.168;2023-03-01T01:05:58;-3.50;99.90
21672;DHT22;10997;52.242;8.168;2023-03-01T01:10:59;-3.50;99.90
21672;DHT22;10997;52.242;8.168;2023-03-01T01:16:03;-3.50;99.90
21672;DHT22;10997;52.242;8.168;2023-03-01T01:21:09;-3.50;99.90
21672;DHT22;10997;52.242;8.168;2023-03-01T01:26:11;-3.60;99.90
21672;DHT22;10997;52.242;8.168;2023-03-01T01:31:12;-3.60;99.90
21672;DHT22;10997;52.242;8.168;2023-03-01T01:36:12;-3.70;99.90
21672;DHT22;10997;52.242;8.168;2023-03-01T01:41:14;-3.70;99.90
21672;DHT22;10997;52.242;8.168;2023-03-01T01:46:33;-3.70;99.90
21672;DHT22;10997;52.242;8.168;2023-03-01T01:51:42;-3.70;99.90
21672;DHT22;10997;52.242;8.168;2023-03-01T01:56:48;-3.80;99.90
21672;DHT22;10997;52.242;8.168;2023-03-01T02:01:51;-3.80;99.90
21672;DHT22;10997;52.242;8.168;2023-03-01T02:07:01;-3.80;99.90
21672;DHT22;10997;52.242;8.168;2023-03-01T02:12:04;-3.80;99.90
21672;DHT22;10997;52.242;8.168;2023-03-01T02:17:05;-3.90;99.90
21672;DHT22;10997;52.242;8.168;2023-03-01T02:22:18;-4.00;99.90
21672;DHT22;10997;52.242;8.168;2023-03-01T02:27:32;-4.00;99.90
21672;DHT22;10997;52.242;8.168;2023-03-01T02:32:34;-4.00;99.90
21672;DHT22;10997;52.242;8.168;2023-03-01T02:37:36;-4.00;99.90
21672;DHT22;10997;52.242;8.168;2023-03-01T02:42:47;-4.00;99.90
21672;DHT22;10997;52.242;8.168;2023-03-01T02:47:49;-4.10;99.90
21672;DHT22;10997;52.242;8.168;2023-03-01T02:53:16;-4.10;99.90
21672;DHT22;10997;52.242;8.168;2023-03-01T02:58:20;-4.10;99.90
21672;DHT22;10997;52.242;8.168;2023-03-01T03:03:21;-4.20;99.90
21672;DHT22;10997;52.242;8.168;2023-03-01T03:08:22;-4.20;99.90
21672;DHT22;10997;52.242;8.168;2023-03-01T03:13:24;-4.30;99.90
21672;DHT22;10997;52.242;8.168;2023-03-01T03:18:28;-4.30;99.90
21672;DHT22;10997;52.242;8.168;2023-03-01T03:23:29;-4.30;99.90
21672;DHT22;10997;52.242;8.168;2023-03-01T03:28:34;-4.30;99.90
21672;DHT22;10997;52.242;8.168;2023-03-01T03:33:35;-4.30;99.90
21672;DHT22;10997;52.242;8.168;2023-03-01T03:38:35;-4.40;99.90
21672;DHT22;10997;52.242;8.168;2023-03-01T03:43:37;-4.40;99.90
21672;DHT22;10997;52.242;8.168;2023-03-01T03:48:47;-4.40;99.90
21672;DHT22;10997;52.242;8.168;2023-03-01T03:53:49;-4.40;99.90
21672;DHT22;10997;52.242;8.168;2023-03-01T03:58:50;-4.40;99.90
21672;DHT22;10997;52.242;8.168;2023-03-01T04:03:50;-4.50;99.90
21672;DHT22;10997;52.242;8.168;2023-03-01T04:08:54;-4.50;99.90
21672;DHT22;10997;52.242;8.168;2023-03-01T04:13:58;-4.50;99.90
21672;DHT22;10997;52.242;8.168;2023-03-01T04:19:00;-4.60;99.90
21672;DHT22;10997;52.242;8.168;2023-03-01T04:24:00;-4.60;99.90
21672;DHT22;10997;52.242;8.168;2023-03-01T04:29:03;-4.60;99.90
21672;DHT22;10997;52.242;8.168;2023-03-01T04:34:04;-4.60;99.90
21672;DHT22;10997;52.242;8.168;2023-03-01T04:39:05;-4.60;99.90
21672;DHT22;10997;52.242;8.168;2023-03-01T04:44:12;-4.60;99.90
21672;DHT22;10997;52.242;8.168;2023-03-01T04:49:13;-4.70;99.90
21672;DHT22;10997;52.242;8.168;2023-03-01T04:54:13;-4.70;99.90
21672;DHT22;10997;52.242;8.168;2023-03-01T04:59:14;-4.80;99.90
21672;DHT22;10997;52.242;8.168;2023-03-01T05:04:14;-4.80;99.90
21672;DHT22;10997;52.242;8.168;2023-03-01T05:09:15;-4.80;99.90
21672;DHT22;10997;52.242;8.168;2023-03-01T05:14:16;-4.80;99.90
21672;DHT22;10997;52.242;8.168;2023-03-01T05:19:16;-4.80;99.90
21672;DHT22;10997;52.242;8.168;2023-03-01T05:24:22;-4.80;99.90
21672;DHT22;10997;52.242;8.168;2023-03-01T05:29:25;-4.80;99.90
21672;DHT22;10997;52.242;8.168;2023-03-01T05:34:28;-4.90;99.90
21672;DHT22;10997;52.242;8.168;2023-03-01T05:39:29;-4.90;99.90
21672;DHT22;10997;52.242;8.168;2023-03-01T05:44:30;-4.80;99.90
21672;DHT22;10997;52.242;8.168;2023-03-01T05:49:31;-4.80;99.90
21672;DHT22;10997;52.242;8.168;2023-03-01T05:54:32;-4.90;99.90
21672;DHT22;10997;52.242;8.168;2023-03-01T05:59:33;-4.90;99.90
21672;DHT22;10997;52.242;8.168;2023-03-01T06:04:34;-4.90;99.90
21672;DHT22;10997;52.242;8.168;2023-03-01T06:09:34;-5.00;99.90
21672;DHT22;10997;52.242;8.168;2023-03-01T06:14:35;-5.00;99.90
21672;DHT22;10997;52.242;8.168;2023-03-01T06:19:35;-5.00;99.90
21672;DHT22;10997;52.242;8.168;2023-03-01T06:24:36;-5.00;99.90
21672;DHT22;10997;52.242;8.168;2023-03-01T06:29:36;-5.00;99.90
21672;DHT22;10997;52.242;8.168;2023-03-01T06:34:37;-5.00;99.90
21672;DHT22;10997;52.242;8.168;2023-03-01T06:39:38;-4.90;99.90
21672;DHT22;10997;52.242;8.168;2023-03-01T06:44:39;-4.90;99.90
21672;DHT22;10997;52.242;8.168;2023-03-01T06:49:40;-4.90;99.90
21672;DHT22;10997;52.242;8.168;2023-03-01T06:54:41;-4.90;99.90
21672;DHT22;10997;52.242;8.168;2023-03-01T06:59:41;-4.80;99.90
21672;DHT22;10997;52.242;8.168;2023-03-01T07:04:42;-4.70;99.90
21672;DHT22;10997;52.242;8.168;2023-03-01T07:09:43;-4.50;99.90
21672;DHT22;10997;52.242;8.168;2023-03-01T07:14:44;-4.30;99.90
21672;DHT22;10997;52.242;8.168;2023-03-01T07:19:44;-4.10;99.90
21672;DHT22;10997;52.242;8.168;2023-03-01T07:24:45;-3.90;99.90
21672;DHT22;10997;52.242;8.168;2023-03-01T07:29:46;-3.70;99.90
21672;DHT22;10997;52.242;8.168;2023-03-01T07:34:46;-3.50;99.90
21672;DHT22;10997;52.242;8.168;2023-03-01T07:39:47;-3.30;99.90
21672;DHT22;10997;52.242;8.168;2023-03-01T07:44:47;-3.20;99.90
21672;DHT22;10997;52.242;8.168;2023-03-01T07:49:48;-2.90;99.90
21672;DHT22;10997;52.242;8.168;2023-03-01T07:54:48;-2.70;99.90
21672;DHT22;10997;52.242;8.168;2023-03-01T07:59:49;-2.40;99.90
21672;DHT22;10997;52.242;8.168;2023-03-01T08:04:49;-2.20;99.90
21672;DHT22;10997;52.242;8.168;2023-03-01T08:09:50;-2.00;99.90
21672;DHT22;10997;52.242;8.168;2023-03-01T08:14:51;-1.80;99.90
21672;DHT22;10997;52.242;8.168;2023-03-01T08:19:51;-1.50;99.90
21672;DHT22;10997;52.242;8.168;2023-03-01T08:24:52;-1.30;99.90
21672;DHT22;10997;52.242;8.168;2023-03-01T08:29:52;-1.10;99.90
21672;DHT22;10997;52.242;8.168;2023-03-01T08:34:53;-0.90;99.90
21672;DHT22;10997;52.242;8.168;2023-03-01T08:39:54;-0.60;99.90
21672;DHT22;10997;52.242;8.168;2023-03-01T08:44:55;-0.40;99.90
21672;DHT22;10997;52.242;8.168;2023-03-01T08:49:57;-0.10;99.90
21672;DHT22;10997;52.242;8.168;2023-03-01T08:54:57;0.20;99.90
21672;DHT22;10997;52.242;8.168;2023-03-01T08:59:58;0.50;99.90
21672;DHT22;10997;52.242;8.168;2023-03-01T09:04:58;0.70;99.90
21672;DHT22;10997;52.242;8.168;2023-03-01T09:09:59;1.00;99.90
21672;DHT22;10997;52.242;8.168;2023-03-01T09:15:00;1.20;99.90
21672;DHT22;10997;52.242;8.168;2023-03-01T09:20:00;1.50;99.90
21672;DHT22;10997;52.242;8.168;2023-03-01T09:25:01;1.80;99.90
21672;DHT22;10997;52.242;8.168;2023-03-01T09:30:02;1.90;99.90
21672;DHT22;10997;52.242;8.168;2023-03-01T09:35:02;2.20;99.90
21672;DHT22;10997;52.242;8.168;2023-03-01T09:40:08;2.40;99.90
21672;DHT22;10997;52.242;8.168;2023-03-01T09:45:41;2.60;99.90
21672;DHT22;10997;52.242;8.168;2023-03-01T09:50:44;2.80;99.90
21672;DHT22;10997;52.242;8.168;2023-03-01T10:01:20;3.20;99.90
21672;DHT22;10997;52.242;8.168;2023-03-01T10:06:24;3.40;99.90
21672;DHT22;10997;52.242;8.168;2023-03-01T10:11:28;3.60;99.90
21672;DHT22;10997;52.242;8.168;2023-03-01T10:16:53;3.80;99.90
21672;DHT22;10997;52.242;8.168;2023-03-01T10:22:04;3.90;99.90
21672;DHT22;10997;52.242;8.168;2023-03-01T10:32:17;4.20;99.90
21672;DHT22;10997;52.242;8.168;2023-03-01T10:37:20;4.20;99.90
21672;DHT22;10997;52.242;8.168;2023-03-01T10:42:33;4.40;99.90
21672;DHT22;10997;52.242;8.168;2023-03-01T10:47:34;4.50;99.90
21672;DHT22;10997;52.242;8.168;2023-03-01T10:52:40;4.50;99.90
21672;DHT22;10997;52.242;8.168;2023-03-01T10:57:41;4.50;99.90
21672;DHT22;10997;52.242;8.168;2023-03-01T11:02:42;4.70;99.90
21672;DHT22;10997;52.242;8.168;2023-03-01T11:07:51;4.80;99.90
21672;DHT22;10997;52.242;8.168;2023-03-01T11:12:53;4.90;99.90
21672;DHT22;10997;52.242;8.168;2023-03-01T11:18:20;5.20;99.90
21672;DHT22;10997;52.242;8.168;2023-03-01T11:23:22;5.20;99.90
21672;DHT22;10997;52.242;8.168;2023-03-01T11:28:25;5.00;99.90
21672;DHT22;10997;52.242;8.168;2023-03-01T11:38:39;4.90;99.90
21672;DHT22;10997;52.242;8.168;2023-03-01T11:43:52;5.20;99.90
21672;DHT22;10997;52.242;8.168;2023-03-01T11:49:19;5.20;99.90
21672;DHT22;10997;52.242;8.168;2023-03-01T12:10:44;5.60;99.90
21672;DHT22;10997;52.242;8.168;2023-03-01T12:21:30;5.80;99.90
21672;DHT22;10997;52.242;8.168;2023-03-01T12:42:58;6.50;99.60
21672;DHT22;10997;52.242;8.168;2023-03-01T12:48:12;6.60;98.50
21672;DHT22;10997;52.242;8.168;2023-03-01T12:53:29;6.70;98.60
21672;DHT22;10997;52.242;8.168;2023-03-01T12:58:50;6.70;98.00
21672;DHT22;10997;52.242;8.168;2023-03-01T13:19:26;6.90;96.30
21672;DHT22;10997;52.242;8.168;2023-03-01T13:29:52;7.00;96.30
21672;DHT22;10997;52.242;8.168;2023-03-01T13:34:56;7.10;96.10
21672;DHT22;10997;52.242;8.168;2023-03-01T13:40:00;7.00;96.10
21672;DHT22;10997;52.242;8.168;2023-03-01T13:45:35;7.00;95.80
21672;DHT22;10997;52.242;8.168;2023-03-01T13:50:43;7.20;95.90
21672;DHT22;10997;52.242;8.168;2023-03-01T13:56:33;7.30;95.80
21672;DHT22;10997;52.242;8.168;2023-03-01T14:01:28;7.30;95.60
21672;DHT22;10997;52.242;8.168;2023-03-01T14:06:31;7.40;95.50
21672;DHT22;10997;52.242;8.168;2023-03-01T14:17:08;7.20;95.70
21672;DHT22;10997;52.242;8.168;2023-03-01T14:27:43;7.20;95.80
21672;DHT22;10997;52.242;8.168;2023-03-01T14:32:59;7.10;96.10
21672;DHT22;10997;52.242;8.168;2023-03-01T14:38:00;7.20;96.10
21672;DHT22;10997;52.242;8.168;2023-03-01T14:43:08;7.30;96.20
21672;DHT22;10997;52.242;8.168;2023-03-01T14:48:11;7.20;96.20
21672;DHT22;10997;52.242;8.168;2023-03-01T14:53:25;7.10;96.20
21672;DHT22;10997;52.242;8.168;2023-03-01T14:58:26;7.10;96.00
21672;DHT22;10997;52.242;8.168;2023-03-01T15:03:40;7.00;96.20
21672;DHT22;10997;52.242;8.168;2023-03-01T15:08:47;7.20;96.20
21672;DHT22;10997;52.242;8.168;2023-03-01T15:13:48;7.20;95.80
21672;DHT22;10997;52.242;8.168;2023-03-01T15:19:01;7.20;96.00
21672;DHT22;10997;52.242;8.168;2023-03-01T15:29:22;7.00;95.20
21672;DHT22;10997;52.242;8.168;2023-03-01T15:39:42;7.10;95.40
21672;DHT22;10997;52.242;8.168;2023-03-01T15:44:43;7.00;95.20
21672;DHT22;10997;52.242;8.168;2023-03-01T15:49:45;6.90;95.60
21672;DHT22;10997;52.242;8.168;2023-03-01T15:54:46;6.80;95.50
21672;DHT22;10997;52.242;8.168;2023-03-01T15:59:46;6.70;95.50
21672;DHT22;10997;52.242;8.168;2023-03-01T16:04:47;6.50;95.50
21672;DHT22;10997;52.242;8.168;2023-03-01T16:09:49;6.40;95.70
21672;DHT22;10997;52.242;8.168;2023-03-01T16:14:50;6.20;96.20
21672;DHT22;10997;52.242;8.168;2023-03-01T16:19:50;6.10;96.30
21672;DHT22;10997;52.242;8.168;2023-03-01T16:24:51;5.90;96.70
21672;DHT22;10997;52.242;8.168;2023-03-01T16:29:52;5.80;97.00
21672;DHT22;10997;52.242;8.168;2023-03-01T16:34:52;5.60;97.40
21672;DHT22;10997;52.242;8.168;2023-03-01T16:39:53;5.40;97.90
21672;DHT22;10997;52.242;8.168;2023-03-01T16:44:57;5.30;98.10
21672;DHT22;10997;52.242;8.168;2023-03-01T16:49:57;5.10;98.20
21672;DHT22;10997;52.242;8.168;2023-03-01T16:54:58;5.00;98.30
21672;DHT22;10997;52.242;8.168;2023-03-01T16:59:58;4.80;98.60
21672;DHT22;10997;52.242;8.168;2023-03-01T17:04:59;4.60;98.80
21672;DHT22;10997;52.242;8.168;2023-03-01T17:10:01;4.40;99.10
21672;DHT22;10997;52.242;8.168;2023-03-01T17:15:02;4.20;99.30
21672;DHT22;10997;52.242;8.168;2023-03-01T17:20:02;4.10;99.60
21672;DHT22;10997;52.242;8.168;2023-03-01T17:25:03;3.90;99.90
21672;DHT22;10997;52.242;8.168;2023-03-01T17:30:06;3.80;99.90
21672;DHT22;10997;52.242;8.168;2023-03-01T17:35:10;3.60;99.90
21672;DHT22;10997;52.242;8.168;2023-03-01T17:40:13;3.50;99.90
21672;DHT22;10997;52.242;8.168;2023-03-01T17:45:14;3.40;99.90
21672;DHT22;10997;52.242;8.168;2023-03-01T17:50:15;3.30;99.90
21672;DHT22;10997;52.242;8.168;2023-03-01T17:55:15;3.20;99.90
21672;DHT22;10997;52.242;8.168;2023-03-01T18:00:17;3.00;99.90
21672;DHT22;10997;52.242;8.168;2023-03-01T18:05:17;2.80;99.90
21672;DHT22;10997;52.242;8.168;2023-03-01T18:10:19;2.70;99.90
21672;DHT22;10997;52.242;8.168;2023-03-01T18:15:20;2.60;99.90
21672;DHT22;10997;52.242;8.168;2023-03-01T18:20:21;2.60;99.90
21672;DHT22;10997;52.242;8.168;2023-03-01T18:25:21;2.50;99.90
21672;DHT22;10997;52.242;8.168;2023-03-01T18:30:22;2.30;99.90
21672;DHT22;10997;52.242;8.168;2023-03-01T18:35:23;2.20;99.90
21672;DHT22;10997;52.242;8.168;2023-03-01T18:40:23;2.00;99.90
21672;DHT22;10997;52.242;8.168;2023-03-01T18:45:24;1.90;99.90
21672;DHT22;10997;52.242;8.168;2023-03-01T18:50:24;1.90;99.90
21672;DHT22;10997;52.242;8.168;2023-03-01T18:55:25;1.80;99.90
21672;DHT22;10997;52.242;8.168;2023-03-01T19:00:26;1.50;99.90
21672;DHT22;10997;52.242;8.168;2023-03-01T19:05:27;1.40;99.90
21672;DHT22;10997;52.242;8.168;2023-03-01T19:10:28;1.20;99.90
21672;DHT22;10997;52.242;8.168;2023-03-01T19:15:28;1.10;99.90
21672;DHT22;10997;52.242;8.168;2023-03-01T19:20:29;1.10;99.90
21672;DHT22;10997;52.242;8.168;2023-03-01T19:25:29;1.00;99.90
21672;DHT22;10997;52.242;8.168;2023-03-01T19:30:30;0.90;99.90
21672;DHT22;10997;52.242;8.168;2023-03-01T19:35:33;0.90;99.90
21672;DHT22;10997;52.242;8.168;2023-03-01T19:40:35;0.80;99.90
21672;DHT22;10997;52.242;8.168;2023-03-01T19:45:35;0.60;99.90
21672;DHT22;10997;52.242;8.168;2023-03-01T19:50:36;0.40;99.90
21672;DHT22;10997;52.242;8.168;2023-03-01T19:55:37;0.20;99.90
21672;DHT22;10997;52.242;8.168;2023-03-01T20:00:42;0.10;99.90
21672;DHT22;10997;52.242;8.168;2023-03-01T20:05:43;0.00;99.90
21672;DHT22;10997;52.242;8.168;2023-03-01T20:10:44;-0.10;99.90
21672;DHT22;10997;52.242;8.168;2023-03-01T20:15:44;-0.10;99.90
21672;DHT22;10997;52.242;8.168;2023-03-01T20:20:48;-0.20;99.90
21672;DHT22;10997;52.242;8.168;2023-03-01T20:25:49;-0.30;99.90
21672;DHT22;10997;52.242;8.168;2023-03-01T20:30:49;-0.30;99.90
21672;DHT22;10997;52.242;8.168;2023-03-01T20:35:50;-0.40;99.90
21672;DHT22;10997;52.242;8.168;2023-03-01T20:40:56;-0.30;99.90
21672;DHT22;10997;52.242;8.168;2023-03-01T20:45:58;-0.50;99.90
21672;DHT22;10997;52.242;8.168;2023-03-01T20:51:08;-0.50;99.90
21672;DHT22;10997;52.242;8.168;2023-03-01T20:56:12;-0.60;99.90
21672;DHT22;10997;52.242;8.168;2023-03-01T21:01:18;-0.60;99.90
21672;DHT22;10997;52.242;8.168;2023-03-01T21:06:20;-0.70;99.90
21672;DHT22;10997;52.242;8.168;2023-03-01T21:11:20;-0.70;99.90
21672;DHT22;10997;52.242;8.168;2023-03-01T21:16:25;-0.70;99.90
21672;DHT22;10997;52.242;8.168;2023-03-01T21:21:26;-0.80;99.90
21672;DHT22;10997;52.242;8.168;2023-03-01T21:26:27;-0.90;99.90
21672;DHT22;10997;52.242;8.168;2023-03-01T21:31:33;-1.00;99.90
21672;DHT22;10997;52.242;8.168;2023-03-01T21:36:34;-1.00;99.90
21672;DHT22;10997;52.242;8.168;2023-03-01T21:41:36;-1.00;99.90
21672;DHT22;10997;52.242;8.168;2023-03-01T21:46:38;-1.10;99.90
21672;DHT22;10997;52.242;8.168;2023-03-01T21:51:38;-1.20;99.90
21672;DHT22;10997;52.242;8.168;2023-03-01T21:56:40;-1.20;99.90
21672;DHT22;10997;52.242;8.168;2023-03-01T22:01:41;-1.20;99.90
21672;DHT22;10997;52.242;8.168;2023-03-01T22:06:43;-1.20;99.90
21672;DHT22;10997;52.242;8.168;2023-03-01T22:11:47;-1.40;99.90
21672;DHT22;10997;52.242;8.168;2023-03-01T22:16:48;-1.60;99.90
21672;DHT22;10997;52.242;8.168;2023-03-01T22:21:51;-1.60;99.90
21672;DHT22;10997;52.242;8.168;2023-03-01T22:26:53;-1.70;99.90
21672;DHT22;10997;52.242;8.168;2023-03-01T22:31:54;-1.70;99.90
21672;DHT22;10997;52.242;8.168;2023-03-01T22:36:56;-1.70;99.90
21672;DHT22;10997;52.242;8.168;2023-03-01T22:41:56;-1.70;99.90
21672;DHT22;10997;52.242;8.168;2023-03-01T22:46:57;-1.70;99.90
21672;DHT22;10997;52.242;8.168;2023-03-01T22:51:57;-1.70;99.90
21672;DHT22;10997;52.242;8.168;2023-03-01T22:56:58;-1.70;99.90
21672;DHT22;10997;52.242;8.168;2023-03-01T23:01:59;-1.70;99.90
21672;DHT22;10997;52.242;8.168;2023-03-01T23:06:59;-1.70;99.90
21672;DHT22;10997;52.242;8.168;2023-03-01T23:12:01;-1.70;99.90
21672;DHT22;10997;52.242;8.168;2023-03-01T23:17:05;-1.60;99.90
21672;DHT22;10997;52.242;8.168;2023-03-01T23:22:07;-1.30;99.90
21672;DHT22;10997;52.242;8.168;2023-03-01T23:27:08;-1.20;99.90
21672;DHT22;10997;52.242;8.168;2023-03-01T23:32:09;-1.40;99.90
21672;DHT22;10997;52.242;8.168;2023-03-01T23:37:14;-1.60;99.90
21672;DHT22;10997;52.242;8.168;2023-03-01T23:42:14;-1.70;99.90
21672;DHT22;10997;52.242;8.168;2023-03-01T23:47:15;-1.90;99.90
21672;DHT22;10997;52.242;8.168;2023-03-01T23:52:15;-1.90;99.90
21672;DHT22;10997;52.242;8.168;2023-03-01T23:57:17;-1.90;99.90
